Crater Lake National Park, OR

2:47 AM PDT on July 27, 2016 (GMT -0700)
Chiloquin Williamson River | | Change Station

Elev 4173 ft 42.58 °N, 121.86 °W | Updated 29 seconds ago

Clear
Clear
53.4 °F
Feels Like 53.4 °F
N
4.9
Wind Variable Wind from NE
Gusts 4.9 mph

Today
High -- | Low -- °F
--% Chance of Precip.
Yesterday
High -- | Low -- °F
Precip. -- in
Pressure 29.97 in
Visibility 10.0 miles
Clouds Clear
Dew Point 50 °F
Humidity 87%
Rainfall 0.00 in
Snow Depth Not available.
5:54 AM 8:32 PM
Last Quarter, 45% visible
METAR KLMT 270853Z AUTO 00000KT 10SM CLR 14/11 A3011 RMK AO2 SLP149 T01440111 50002
Pressure 29.97 in
Visibility 10.0 miles
Clouds Clear
Dew Point 50 °F
Humidity 87%
Rainfall 0.00 in
Snow Depth Not available.
5:54 AM 8:32 PM
Last Quarter, 45% visible
METAR KLMT 270853Z AUTO 00000KT 10SM CLR 14/11 A3011 RMK AO2 SLP149 T01440111 50002

10-Day Weather Forecast

Almanac

Astronomy

Jul. 27, 2016 Rise Set
Actual Time
Civil Twilight
Nautical Twilight
Astronomical Twilight
Moon
Length of Visible Light
Length of Day
Tomorrow will be .
, % of the Moon is Illuminated

Today's Extremes

State Highs State Lows

Community

WunderPhotos

Upload Photos

1,927,818 photos uploaded!

WunderBlog® & News

Nearby

Air Quality

  Air Quality AQ Index Pollutant
Not available.

Snow Depth

Station Depth Elevation

Earthquake Activity

City Distance Mag. Time & Date
Minimum magnitude displayed is 2.5.

Coastal Water Temperatures

Place Temperature

Stations

Nearby Weather Stations

Station Location Temp. Windchill Dew Point Humidity Wind Precip. Elev Updated Type
                   

Watches & Warnings

There are currently no watches in effect.